Time;durP1;ratioP1;P1;durP2;ratioP2;P2;SDS_P1;SDS_P2;PMS_P1;PMS_P2;Temp;Humidity;BMP_temperature;BMP_pressure;BME280_temperature;BME280_humidity;BME280_pressure;Samples;Min_cycle;Max_cycle;Signal;HPM_P1;HPM_P2
2021/11/20 00:01:58;;;;;;;36.28;21.33;;;;;;;8.22;100.00;101783.91;5030911;28;20046;-54
2021/11/20 00:04:26;;;;;;;37.15;21.65;;;;;;;8.30;100.00;101792.59;5030097;28;20048;-52
2021/11/20 00:06:55;;;;;;;38.25;22.10;;;;;;;8.31;100.00;101804.03;5035548;28;20337;-55
2021/11/20 00:09:24;;;;;;;39.57;21.33;;;;;;;8.30;100.00;101799.66;5000087;28;1148330;-54
2021/11/20 00:11:54;;;;;;;41.72;22.15;;;;;;;8.27;100.00;101791.78;5029942;28;20558;-60
2021/11/20 00:14:23;;;;;;;41.17;22.02;;;;;;;8.23;100.00;101796.22;5027881;28;20137;-53
2021/11/20 00:16:51;;;;;;;39.92;22.40;;;;;;;8.22;100.00;101793.59;5036264;28;20052;-54
2021/11/20 00:19:20;;;;;;;40.75;21.52;;;;;;;8.22;100.00;101791.84;5034647;28;20060;-54
2021/11/20 00:22:21;;;;;;;38.20;22.17;;;;;;;8.25;100.00;101788.28;5029064;28;20049;-53
2021/11/20 00:24:52;;;;;;;40.38;21.85;;;;;;;8.26;100.00;101795.31;5037964;28;20033;-52
2021/11/20 00:27:24;;;;;;;38.63;22.40;;;;;;;8.23;100.00;101782.16;5042199;28;20045;-53
2021/11/20 00:30:01;;;;;;;40.40;23.55;;;;;;;8.21;100.00;101784.81;5036840;28;20506;-55
2021/11/20 00:32:32;;;;;;;41.50;22.70;;;;;;;8.18;100.00;101773.47;5026098;28;20075;-55
2021/11/20 00:35:03;;;;;;;43.13;23.75;;;;;;;8.24;100.00;101778.63;5045447;28;20520;-55
2021/11/20 00:37:29;;;;;;;38.70;22.92;;;;;;;8.12;100.00;101748.03;5036174;28;20064;-55
2021/11/20 00:39:56;;;;;;;44.63;23.88;;;;;;;8.21;100.00;101771.63;5032726;28;20149;-54
2021/11/20 00:42:22;;;;;;;39.05;23.75;;;;;;;8.28;100.00;101778.56;5028530;28;20419;-54
2021/11/20 00:44:49;;;;;;;42.17;24.55;;;;;;;8.22;100.00;101764.56;5033401;28;20056;-53
2021/11/20 00:47:17;;;;;;;47.60;25.33;;;;;;;8.20;100.00;101758.44;5033132;28;20051;-55
2021/11/20 00:49:45;;;;;;;45.35;24.63;;;;;;;8.16;100.00;101756.78;5043615;28;20040;-55
2021/11/20 00:52:12;;;;;;;46.03;24.88;;;;;;;8.21;100.00;101762.84;5025743;28;20068;-55
2021/11/20 00:54:39;;;;;;;40.97;24.58;;;;;;;8.22;100.00;101761.94;5035265;28;20041;-54
2021/11/20 00:57:10;;;;;;;42.40;24.13;;;;;;;8.20;100.00;101761.09;5035482;28;20094;-55
2021/11/20 00:59:38;;;;;;;42.78;24.73;;;;;;;8.21;100.00;101765.47;5035587;28;20057;-53
2021/11/20 01:02:05;;;;;;;44.00;23.67;;;;;;;8.27;100.00;101760.97;5027213;28;20514;-54
2021/11/20 01:04:33;;;;;;;43.22;24.50;;;;;;;8.24;100.00;101766.31;5022688;28;20502;-55
2021/11/20 01:07:01;;;;;;;45.13;23.73;;;;;;;8.23;100.00;101761.03;5030618;28;20053;-55
2021/11/20 01:09:32;;;;;;;41.78;24.40;;;;;;;8.20;100.00;101761.97;5028822;28;20066;-53
2021/11/20 01:12:09;;;;;;;43.88;23.25;;;;;;;8.20;100.00;101763.72;5030600;28;20051;-56
2021/11/20 01:14:38;;;;;;;48.03;24.33;;;;;;;8.19;100.00;101757.56;5032368;28;20044;-52
2021/11/20 01:17:07;;;;;;;44.50;24.17;;;;;;;8.22;100.00;101754.03;5038301;28;20052;-53
2021/11/20 01:19:35;;;;;;;45.72;25.27;;;;;;;8.22;100.00;101761.94;5032519;28;20048;-53
2021/11/20 01:22:05;;;;;;;47.67;26.63;;;;;;;8.23;100.00;101758.41;5024628;28;20135;-53
2021/11/20 01:24:32;;;;;;;49.42;26.17;;;;;;;8.20;100.00;101764.59;5036296;28;20068;-54
2021/11/20 01:26:59;;;;;;;43.92;25.63;;;;;;;8.19;100.00;101757.56;5036360;28;20414;-52
2021/11/20 01:29:26;;;;;;;49.08;26.60;;;;;;;8.18;100.00;101755.88;5034963;28;20060;-52
2021/11/20 01:31:55;;;;;;;48.28;25.50;;;;;;;8.21;100.00;101747.88;5026189;28;20045;-56
2021/11/20 01:34:22;;;;;;;47.70;25.73;;;;;;;8.19;100.00;101751.41;5031381;28;20047;-54
2021/11/20 01:36:52;;;;;;;49.78;26.98;;;;;;;8.15;100.00;101749.75;5036549;28;20045;-55
2021/11/20 01:39:22;;;;;;;46.97;25.77;;;;;;;8.15;100.00;101750.63;5033899;28;20132;-53
2021/11/20 01:41:58;;;;;;;51.03;28.42;;;;;;;8.16;100.00;101743.59;5026568;28;20075;-53
2021/11/20 01:44:37;;;;;;;51.40;27.25;;;;;;;8.15;100.00;101744.47;5035020;28;20041;-54
2021/11/20 01:47:20;;;;;;;54.08;27.33;;;;;;;8.20;100.00;101742.63;5036281;28;20092;-52
2021/11/20 01:49:56;;;;;;;53.30;27.48;;;;;;;8.16;100.00;101733.91;5027187;28;20042;-53
2021/11/20 01:52:46;;;;;;;53.85;26.23;;;;;;;8.18;100.00;101733.88;5027582;28;20048;-55
2021/11/20 01:55:23;;;;;;;52.90;27.88;;;;;;;8.14;100.00;101730.41;5042068;28;20041;-54
2021/11/20 01:57:57;;;;;;;49.80;27.85;;;;;;;8.15;100.00;101739.19;5032099;28;20047;-54
2021/11/20 02:00:37;;;;;;;47.97;26.52;;;;;;;8.19;100.00;101735.59;5034089;28;20049;-53
2021/11/20 02:03:19;;;;;;;50.78;26.55;;;;;;;8.16;100.00;101727.75;5032561;28;20580;-54
2021/11/20 02:06:15;;;;;;;50.00;27.83;;;;;;;8.15;100.00;101726.88;5038158;28;20160;-55
2021/11/20 02:08:48;;;;;;;51.35;27.30;;;;;;;8.19;100.00;101731.19;5029859;28;20037;-53
2021/11/20 02:11:20;;;;;;;52.40;28.05;;;;;;;8.18;100.00;101728.59;5027263;28;20060;-55
2021/11/20 02:13:47;;;;;;;53.92;28.48;;;;;;;8.21;100.00;101737.31;5029747;28;20053;-52
2021/11/20 02:16:16;;;;;;;50.85;27.48;;;;;;;8.24;100.00;101739.03;5033536;28;20419;-53
2021/11/20 02:18:50;;;;;;;52.20;27.88;;;;;;;8.25;100.00;101725.81;5032762;28;20394;-55
2021/11/20 02:21:39;;;;;;;51.75;28.15;;;;;;;8.21;100.00;101726.75;5027191;28;20603;-51
2021/11/20 02:24:05;;;;;;;50.38;27.50;;;;;;;8.21;100.00;101728.53;5042950;28;20045;-53
2021/11/20 02:26:32;;;;;;;49.53;27.77;;;;;;;8.20;100.00;101717.09;5031690;28;20049;-52
2021/11/20 02:29:03;;;;;;;53.85;28.42;;;;;;;8.21;100.00;101710.06;5031656;28;20041;-54
2021/11/20 02:31:29;;;;;;;52.13;28.60;;;;;;;8.22;100.00;101711.81;5028803;28;20060;-52
2021/11/20 02:33:56;;;;;;;50.83;28.45;;;;;;;8.20;100.00;101703.03;5030616;28;20049;-54
2021/11/20 02:36:24;;;;;;;49.80;28.30;;;;;;;8.22;100.00;101709.16;5030806;28;20049;-54
2021/11/20 02:39:02;;;;;;;50.20;28.02;;;;;;;8.20;100.00;101695.13;5031266;28;20608;-52
2021/11/20 02:41:32;;;;;;;56.45;28.48;;;;;;;8.18;100.00;101692.53;5026080;28;20053;-53
2021/11/20 02:44:02;;;;;;;59.30;28.38;;;;;;;8.17;100.00;101685.50;5033184;28;20048;-54
2021/11/20 02:46:34;;;;;;;59.33;29.98;;;;;;;8.13;100.00;101690.84;5038966;28;20140;-52
2021/11/20 02:49:01;;;;;;;53.85;28.55;;;;;;;8.09;100.00;101685.63;5036611;28;20524;-53
2021/11/20 02:51:32;;;;;;;57.70;29.77;;;;;;;8.12;100.00;101681.19;5028930;28;20395;-51
2021/11/20 02:54:02;;;;;;;52.70;28.77;;;;;;;8.10;100.00;101678.59;5040279;28;20041;-53
2021/11/20 02:56:39;;;;;;;60.50;30.50;;;;;;;8.15;100.00;101670.59;5037057;28;20101;-54
2021/11/20 02:59:06;;;;;;;53.83;28.73;;;;;;;8.15;100.00;101674.09;5036807;28;20053;-53
2021/11/20 03:01:36;;;;;;;54.67;29.35;;;;;;;8.14;100.00;101674.13;5029784;28;20052;-54
2021/11/20 03:04:10;;;;;;;58.40;29.77;;;;;;;8.10;100.00;101666.25;5040026;28;20099;-52
2021/11/20 03:06:36;;;;;;;56.20;29.23;;;;;;;8.10;100.00;101666.25;5015067;28;20045;-55
2021/11/20 03:09:06;;;;;;;60.60;30.65;;;;;;;8.12;100.00;101668.00;5016107;28;20042;-53
2021/11/20 03:11:33;;;;;;;57.58;30.10;;;;;;;8.10;100.00;101663.63;5009330;28;20053;-52
2021/11/20 03:14:04;;;;;;;61.35;30.52;;;;;;;8.14;100.00;101658.31;5012222;28;20132;-53
2021/11/20 03:16:33;;;;;;;56.13;29.42;;;;;;;8.16;100.00;101656.50;5010497;28;20046;-54
2021/11/20 03:19:00;;;;;;;60.47;30.17;;;;;;;8.15;100.00;101649.50;5015557;28;20070;-53
2021/11/20 03:21:26;;;;;;;58.40;30.52;;;;;;;8.12;100.00;101644.25;5019278;28;20053;-55
2021/11/20 03:23:56;;;;;;;57.60;29.80;;;;;;;8.14;100.00;101642.47;5017528;28;20045;-52
2021/11/20 03:26:23;;;;;;;54.20;28.93;;;;;;;8.09;100.00;101645.19;5018691;28;20053;-53
2021/11/20 03:28:49;;;;;;;60.10;30.48;;;;;;;8.07;100.00;101632.00;5020466;28;20469;-54
2021/11/20 03:31:16;;;;;;;63.42;31.42;;;;;;;8.09;100.00;101646.06;5008657;28;20049;-53
2021/11/20 03:33:43;;;;;;;58.38;30.17;;;;;;;8.09;100.00;101646.06;5011073;28;22220;-54
2021/11/20 03:36:09;;;;;;;57.33;30.83;;;;;;;8.13;100.00;101638.97;5018408;28;20522;-53
2021/11/20 03:38:35;;;;;;;62.60;30.85;;;;;;;8.10;100.00;101641.66;5021601;28;20531;-53
2021/11/20 03:41:03;;;;;;;59.03;30.60;;;;;;;8.10;100.00;101633.72;5030433;28;20045;-54
2021/11/20 03:43:29;;;;;;;61.88;30.88;;;;;;;8.10;100.00;101633.72;5035435;28;20041;-55
2021/11/20 03:45:56;;;;;;;59.33;30.42;;;;;;;8.11;100.00;101627.56;5034426;28;20056;-53
2021/11/20 03:48:22;;;;;;;61.70;29.80;;;;;;;8.12;100.00;101626.66;5034640;28;20388;-53
2021/11/20 03:50:49;;;;;;;62.00;31.45;;;;;;;8.08;100.00;101625.84;5035672;28;20143;-55
2021/11/20 03:53:16;;;;;;;61.80;30.33;;;;;;;8.06;100.00;101614.44;5036297;28;20056;-56
2021/11/20 03:55:45;;;;;;;61.92;29.02;;;;;;;8.08;100.00;101611.78;5033958;28;20044;-54
2021/11/20 03:58:13;;;;;;;64.05;30.65;;;;;;;8.08;100.00;101612.66;5039846;28;20367;-53
2021/11/20 04:01:11;;;;;;;60.38;30.02;;;;;;;8.09;100.00;101624.94;5034792;28;20051;-54
2021/11/20 04:03:40;;;;;;;62.58;32.00;;;;;;;8.06;100.00;101613.56;5026473;28;20044;-56
2021/11/20 04:06:12;;;;;;;65.93;32.70;;;;;;;8.03;100.00;101614.47;5036016;28;20038;-53
2021/11/20 04:08:40;;;;;;;63.30;31.40;;;;;;;8.04;100.00;101615.34;5040061;28;20060;-57
2021/11/20 04:11:07;;;;;;;59.85;31.48;;;;;;;8.07;100.00;101616.19;5033222;28;20057;-53
2021/11/20 04:13:36;;;;;;;59.05;30.55;;;;;;;8.08;100.00;101607.38;5028774;28;20048;-51
2021/11/20 04:16:05;;;;;;;63.70;31.88;;;;;;;8.04;100.00;101626.78;5035149;28;20052;-52
2021/11/20 04:18:32;;;;;;;66.38;32.78;;;;;;;8.02;100.00;101623.31;5038053;28;20049;-54
2021/11/20 04:20:58;;;;;;;62.17;30.75;;;;;;;8.01;100.00;101626.00;5037704;28;20045;-51
2021/11/20 04:23:25;;;;;;;66.68;32.05;;;;;;;8.03;100.00;101618.88;5030352;28;22505;-54
2021/11/20 04:25:51;;;;;;;64.55;31.38;;;;;;;8.06;100.00;101613.56;5042504;28;20060;-52
2021/11/20 04:28:18;;;;;;;61.33;32.13;;;;;;;8.08;100.00;101615.28;5034177;28;20053;-53
2021/11/20 04:30:46;;;;;;;62.95;31.17;;;;;;;8.05;100.00;101607.41;5039752;28;20052;-53
2021/11/20 04:33:13;;;;;;;62.10;31.85;;;;;;;8.05;100.00;101612.69;5028556;28;20495;-53
2021/11/20 04:35:40;;;;;;;66.20;31.80;;;;;;;7.99;100.00;101607.53;5041999;28;20743;-54
2021/11/20 04:38:08;;;;;;;62.63;31.15;;;;;;;8.03;100.00;101603.94;5039627;28;20048;-53
2021/11/20 04:40:36;;;;;;;64.30;33.20;;;;;;;8.00;100.00;101598.75;5031503;28;20052;-53
2021/11/20 04:43:03;;;;;;;65.00;32.00;;;;;;;8.01;100.00;101600.47;5028167;28;20045;-52
2021/11/20 04:45:32;;;;;;;63.65;32.33;;;;;;;8.01;100.00;101611.03;5038625;28;20068;-52
2021/11/20 04:48:01;;;;;;;63.00;31.92;;;;;;;8.04;100.00;101615.34;5040300;28;20044;-55
2021/11/20 04:50:28;;;;;;;68.70;33.03;;;;;;;8.03;100.00;101605.69;5028397;28;20049;-54
2021/11/20 04:52:55;;;;;;;66.25;32.22;;;;;;;8.02;100.00;101604.00;5029591;28;20046;-54
2021/11/20 04:55:22;;;;;;;66.18;33.63;;;;;;;8.02;100.00;101602.22;5033811;28;20410;-53
2021/11/20 04:57:49;;;;;;;66.18;31.15;;;;;;;8.01;100.00;101604.88;5033980;28;20415;-53
2021/11/20 05:00:21;;;;;;;66.20;33.10;;;;;;;8.02;100.00;101586.41;5029402;28;20064;-53
2021/11/20 05:02:47;;;;;;;67.72;33.83;;;;;;;8.02;100.00;101601.34;5025964;28;20045;-53
2021/11/20 05:05:15;;;;;;;65.72;32.22;;;;;;;8.00;100.00;101596.09;5032690;28;20049;-52
2021/11/20 05:07:42;;;;;;;67.78;33.30;;;;;;;7.89;100.00;101582.19;5034268;28;20048;-55
2021/11/20 05:10:11;;;;;;;65.25;31.10;;;;;;;8.02;100.00;101601.34;5038804;28;20049;-51
2021/11/20 05:12:38;;;;;;;64.25;31.63;;;;;;;7.97;100.00;101596.16;5029526;28;20049;-51
2021/11/20 05:15:08;;;;;;;66.25;32.08;;;;;;;7.96;100.00;101596.16;5036339;28;20132;-52
2021/11/20 05:17:35;;;;;;;63.90;31.13;;;;;;;7.98;100.00;101589.97;5033538;28;20056;-53
2021/11/20 05:20:04;;;;;;;65.40;31.70;;;;;;;7.98;100.00;101595.25;5030605;28;20065;-54
2021/11/20 05:22:31;;;;;;;69.45;31.77;;;;;;;7.97;100.00;101597.91;5030093;28;20056;-53
2021/11/20 05:24:57;;;;;;;66.97;33.50;;;;;;;7.98;100.00;101589.97;5039545;28;20116;-52
2021/11/20 05:27:24;;;;;;;67.13;32.45;;;;;;;7.98;100.00;101597.00;5035828;28;20049;-55
2021/11/20 05:30:05;;;;;;;64.15;31.20;;;;;;;7.99;100.00;101591.72;5032209;28;20042;-54
2021/11/20 05:32:32;;;;;;;;;;;;;;;8.00;100.00;101590.81;5026636;28;20049;-53
2021/11/20 05:34:58;;;;;;;64.35;30.15;;;;;;;8.03;100.00;101581.97;5032441;28;19928;-54
2021/11/20 05:37:25;;;;;;;68.40;31.38;;;;;;;8.02;100.00;101583.75;5036168;28;20051;-52
2021/11/20 05:39:52;;;;;;;65.13;32.42;;;;;;;8.04;100.00;101581.94;5030061;28;20045;-53
2021/11/20 05:42:18;;;;;;;62.95;31.88;;;;;;;8.05;100.00;101583.69;5030286;28;20052;-51
2021/11/20 05:44:45;;;;;;;67.90;32.33;;;;;;;8.05;100.00;101580.16;5031211;28;20300;-51
2021/11/20 05:47:12;;;;;;;65.07;32.30;;;;;;;8.02;100.00;101585.53;5043880;28;20049;-54
2021/11/20 05:49:41;;;;;;;67.05;32.65;;;;;;;8.03;100.00;101584.59;5036075;28;20060;-54
2021/11/20 05:52:09;;;;;;;67.50;33.08;;;;;;;8.01;100.00;101594.34;5033828;28;20086;-55
2021/11/20 05:54:35;;;;;;;69.30;32.33;;;;;;;7.98;100.00;101582.06;5031668;28;20041;-54
2021/11/20 05:57:02;;;;;;;66.88;32.55;;;;;;;7.99;100.00;101589.06;5033356;28;20052;-54
2021/11/20 05:59:28;;;;;;;61.10;31.05;;;;;;;7.96;100.00;101575.94;5029514;28;20495;-52
2021/11/20 06:01:55;;;;;;;68.35;31.88;;;;;;;7.96;100.00;101575.94;5030182;28;20044;-53
2021/11/20 06:04:22;;;;;;;70.82;32.67;;;;;;;8.01;100.00;101582.00;5032014;28;20052;-52
2021/11/20 06:06:49;;;;;;;67.93;32.75;;;;;;;7.99;100.00;101581.16;5038012;28;20037;-54
2021/11/20 06:09:15;;;;;;;73.43;33.63;;;;;;;7.97;100.00;101577.69;5034692;28;20541;-54
2021/11/20 06:11:42;;;;;;;66.35;32.05;;;;;;;7.96;100.00;101583.84;5034658;28;20470;-54
2021/11/20 06:14:09;;;;;;;65.97;32.35;;;;;;;7.95;100.00;101574.19;5031412;28;20047;-57
2021/11/20 06:16:35;;;;;;;67.53;33.05;;;;;;;7.97;100.00;101580.31;5034383;28;20052;-53
2021/11/20 06:19:03;;;;;;;69.32;32.22;;;;;;;7.96;100.00;101582.97;5036926;28;20419;-53
2021/11/20 06:21:29;;;;;;;71.72;33.03;;;;;;;7.95;100.00;101574.19;5038881;28;20624;-53
2021/11/20 06:23:56;;;;;;;72.88;33.50;;;;;;;7.95;100.00;101571.56;5030175;28;20399;-52
2021/11/20 06:26:22;;;;;;;67.07;32.88;;;;;;;7.90;100.00;101554.94;5036780;28;20073;-52
2021/11/20 06:28:49;;;;;;;70.43;31.88;;;;;;;7.98;100.00;101578.56;5033698;28;20052;-52
2021/11/20 06:31:16;;;;;;;64.30;31.05;;;;;;;8.01;100.00;101584.66;5034982;28;20057;-52
2021/11/20 06:33:43;;;;;;;63.55;30.42;;;;;;;8.04;100.00;101579.28;5031356;28;20037;-53
2021/11/20 06:36:10;;;;;;;65.32;31.85;;;;;;;8.03;100.00;101581.97;5045081;28;20049;-53
2021/11/20 06:38:39;;;;;;;68.30;31.42;;;;;;;8.06;100.00;101576.63;5045911;28;20055;-53
2021/11/20 06:41:07;;;;;;;64.65;31.13;;;;;;;8.08;100.00;101574.84;5033471;28;20437;-53
2021/11/20 06:43:35;;;;;;;61.22;30.27;;;;;;;7.97;100.00;101550.44;5035125;28;20048;-53
2021/11/20 06:46:05;;;;;;;68.57;32.00;;;;;;;8.08;100.00;101578.34;5038141;28;20470;-53
2021/11/20 06:48:33;;;;;;;68.88;32.38;;;;;;;8.04;100.00;101579.28;5040198;28;20409;-53
2021/11/20 06:50:59;;;;;;;66.57;31.05;;;;;;;8.03;100.00;101580.19;5041102;28;21614;-55
2021/11/20 06:53:27;;;;;;;66.32;31.13;;;;;;;8.04;100.00;101581.94;5018426;28;20133;-54
2021/11/20 06:55:54;;;;;;;67.60;32.03;;;;;;;8.03;100.00;101574.91;5042643;28;20037;-53
2021/11/20 06:58:32;;;;;;;67.63;31.58;;;;;;;8.00;100.00;101571.50;5035466;28;20049;-54
2021/11/20 07:01:05;;;;;;;72.60;32.67;;;;;;;7.99;100.00;101578.53;5036246;28;20049;-54
2021/11/20 07:03:37;;;;;;;67.60;31.27;;;;;;;7.99;100.00;101575.03;5028887;28;20052;-52
2021/11/20 07:06:18;;;;;;;67.45;31.70;;;;;;;8.00;100.00;101580.28;5033399;28;20044;-52
2021/11/20 07:08:46;;;;;;;64.82;30.60;;;;;;;8.01;100.00;101582.00;5031754;28;20406;-54
2021/11/20 07:11:13;;;;;;;68.43;31.55;;;;;;;8.05;100.00;101590.72;5034811;28;20076;-52
2021/11/20 07:13:40;;;;;;;67.00;30.52;;;;;;;8.07;100.00;101588.94;5035106;28;20048;-55
2021/11/20 07:16:09;;;;;;;62.22;30.00;;;;;;;8.09;100.00;101589.78;5033679;28;20056;-51
2021/11/20 07:18:35;;;;;;;61.15;30.20;;;;;;;8.10;100.00;101595.03;5039916;28;20052;-54
2021/11/20 07:21:03;;;;;;;64.10;31.73;;;;;;;8.11;100.00;101582.72;5035805;28;20418;-52
2021/11/20 07:23:30;;;;;;;72.97;32.33;;;;;;;8.23;100.00;101589.53;5032589;28;20056;-53
2021/11/20 07:25:58;;;;;;;61.80;32.00;;;;;;;8.23;100.00;101584.25;5039005;28;20047;-54
2021/11/20 07:28:26;;;;;;;62.80;31.10;;;;;;;8.26;100.00;101582.44;5041921;28;20045;-52
2021/11/20 07:30:53;;;;;;;64.95;32.17;;;;;;;8.24;100.00;101575.44;5038391;28;20068;-54
2021/11/20 07:33:20;;;;;;;64.10;32.53;;;;;;;8.26;100.00;101581.56;5036204;28;20045;-54
2021/11/20 07:35:50;;;;;;;65.32;32.63;;;;;;;8.23;100.00;101582.47;5042669;28;20120;-54
2021/11/20 07:38:29;;;;;;;62.03;30.55;;;;;;;8.29;100.00;101578.88;5034058;28;20049;-53
2021/11/20 07:40:56;;;;;;;64.30;32.15;;;;;;;8.38;100.00;101571.66;5036232;28;20053;-52
2021/11/20 07:43:23;;;;;;;61.85;31.02;;;;;;;8.37;100.00;101569.06;5033613;28;20076;-56
2021/11/20 07:45:50;;;;;;;56.78;29.33;;;;;;;8.49;100.00;101571.47;5035603;28;20427;-54
2021/11/20 07:48:19;;;;;;;57.63;29.13;;;;;;;8.56;100.00;101573.09;5035830;28;20061;-52
2021/11/20 07:50:47;;;;;;;56.17;29.25;;;;;;;8.58;100.00;101566.00;5031843;28;20075;-54
2021/11/20 07:53:16;;;;;;;58.38;29.92;;;;;;;8.67;100.00;101563.16;5030248;28;20049;-52
2021/11/20 07:55:45;;;;;;;54.95;28.90;;;;;;;8.66;100.00;101568.47;5033171;28;20044;-53
2021/11/20 07:58:12;;;;;;;56.35;28.52;;;;;;;8.69;100.00;101557.84;5047421;28;20566;-54
2021/11/20 08:00:39;;;;;;;52.08;28.08;;;;;;;8.63;100.00;101550.94;5034982;28;20112;-55
2021/11/20 08:03:08;;;;;;;55.88;29.92;;;;;;;8.67;100.00;101560.53;5029479;28;20069;-54
2021/11/20 08:05:35;;;;;;;54.75;28.95;;;;;;;8.66;100.00;101556.13;5030881;28;20160;-54
2021/11/20 08:08:02;;;;;;;52.42;28.25;;;;;;;8.60;99.45;101552.78;5033738;28;20062;-55
2021/11/20 08:10:30;;;;;;;54.10;27.55;;;;;;;8.58;99.76;101547.53;5035006;28;20049;-53
2021/11/20 08:12:57;;;;;;;47.97;27.05;;;;;;;8.56;99.93;101545.81;5030301;28;20403;-53
2021/11/20 08:15:25;;;;;;;49.65;27.00;;;;;;;8.59;99.97;101541.34;5034595;28;20060;-53
2021/11/20 08:17:53;;;;;;;48.22;26.13;;;;;;;8.69;100.00;101539.38;5036517;28;20055;-54
2021/11/20 08:20:22;;;;;;;51.88;27.48;;;;;;;8.83;100.00;101539.94;5033122;28;20049;-53
2021/11/20 08:22:49;;;;;;;50.80;27.63;;;;;;;8.71;99.92;101514.66;5038796;28;20084;-54
2021/11/20 08:25:23;;;;;;;45.50;24.75;;;;;;;8.81;98.99;101540.91;5033614;28;20501;-52
2021/11/20 08:27:50;;;;;;;48.72;27.10;;;;;;;8.79;97.76;101535.66;5032168;28;20555;-52
2021/11/20 08:30:20;;;;;;;50.47;28.00;;;;;;;8.77;98.34;101532.16;5032910;28;20045;-53
2021/11/20 08:32:47;;;;;;;51.25;27.77;;;;;;;8.84;100.00;101524.97;5031575;28;20136;-53
2021/11/20 08:35:16;;;;;;;49.35;26.92;;;;;;;8.77;98.95;101516.31;5031227;28;20053;-53
2021/11/20 08:37:44;;;;;;;45.50;26.13;;;;;;;8.87;98.93;101528.41;5034344;28;20049;-54
2021/11/20 08:40:14;;;;;;;49.97;27.80;;;;;;;8.91;98.44;101527.44;5039106;28;20158;-54
2021/11/20 08:42:41;;;;;;;50.15;26.90;;;;;;;8.95;98.11;101522.97;5034963;28;20076;-54
2021/11/20 08:45:12;;;;;;;49.95;26.48;;;;;;;8.91;97.24;101522.16;5032631;28;20045;-54
2021/11/20 08:47:38;;;;;;;49.97;26.83;;;;;;;8.99;98.78;101524.63;5035900;28;20041;-52
2021/11/20 08:50:08;;;;;;;46.65;25.58;;;;;;;9.00;97.31;101524.59;5027312;28;20045;-52
2021/11/20 08:52:34;;;;;;;48.73;26.37;;;;;;;9.10;99.08;101509.41;5020159;28;20057;-53
2021/11/20 08:55:01;;;;;;;44.80;24.73;;;;;;;9.14;96.97;101514.56;5028953;28;20061;-52
2021/11/20 08:57:27;;;;;;;47.25;24.35;;;;;;;9.17;96.82;101512.78;5020777;28;20049;-54
2021/11/20 08:59:54;;;;;;;43.28;25.10;;;;;;;9.20;96.75;101505.66;5028707;28;20061;-53
2021/11/20 09:02:36;;;;;;;44.28;25.42;;;;;;;9.19;96.43;101503.91;5021738;28;20063;-52
2021/11/20 09:05:29;;;;;;;47.60;26.05;;;;;;;9.11;94.83;101501.47;5020865;28;20355;-53
2021/11/20 09:08:03;;;;;;;41.88;24.23;;;;;;;9.08;95.51;101493.59;5024455;28;20045;-53
2021/11/20 09:10:42;;;;;;;45.35;24.88;;;;;;;9.08;94.90;101498.00;5019515;28;20475;-52
2021/11/20 09:13:18;;;;;;;42.63;23.65;;;;;;;9.09;95.40;101494.47;5029767;28;20049;-52
2021/11/20 09:15:55;;;;;;;43.38;24.65;;;;;;;9.10;95.20;101494.44;5019685;28;20054;-53
2021/11/20 09:18:23;;;;;;;43.63;24.25;;;;;;;9.11;94.38;101492.66;5027276;28;20045;-53
2021/11/20 09:20:52;;;;;;;42.72;24.48;;;;;;;9.12;94.66;101494.41;5026132;28;20052;-51
2021/11/20 09:23:19;;;;;;;43.83;24.58;;;;;;;9.10;94.49;101496.22;5021867;28;20052;-53
2021/11/20 09:26:07;;;;;;;43.38;25.27;;;;;;;9.03;94.80;101492.81;5027827;28;20041;-55
2021/11/20 09:28:55;;;;;;;43.05;24.25;;;;;;;9.07;94.89;101491.00;5031625;28;20048;-55
2021/11/20 09:31:24;;;;;;;45.40;25.10;;;;;;;9.11;95.34;101493.53;5025192;28;20053;-53
2021/11/20 09:33:51;;;;;;;43.67;24.92;;;;;;;9.18;94.92;101493.38;5021401;28;20045;-53
2021/11/20 09:36:20;;;;;;;42.55;24.25;;;;;;;9.24;94.67;101494.09;5026035;28;20045;-52
2021/11/20 09:38:49;;;;;;;39.30;23.95;;;;;;;9.28;93.86;101495.78;5035762;28;20529;-54
2021/11/20 09:41:20;;;;;;;42.50;24.63;;;;;;;9.32;93.52;101492.13;5027481;28;20064;-53
2021/11/20 09:43:51;;;;;;;41.13;24.13;;;;;;;9.33;93.79;101483.28;5022713;28;20049;-54
2021/11/20 09:46:21;;;;;;;45.10;24.88;;;;;;;9.33;93.35;101487.72;5025232;28;20141;-53
2021/11/20 09:48:54;;;;;;;;;;;;;;;9.35;93.64;101483.25;5035784;28;20510;-52
2021/11/20 09:51:49;;;;;;;44.38;24.33;;;;;;;9.49;92.34;101482.00;5029115;28;19925;-52
2021/11/20 09:54:23;;;;;;;41.97;23.98;;;;;;;9.49;92.52;101483.78;5021911;28;20065;-52
2021/11/20 09:57:21;;;;;;;39.78;23.00;;;;;;;9.53;92.85;101484.59;5031375;28;20344;-52
2021/11/20 09:59:53;;;;;;;45.80;23.02;;;;;;;9.55;92.21;101478.34;5031653;28;20040;-52
2021/11/20 10:02:31;;;;;;;40.90;23.92;;;;;;;9.61;91.86;101483.47;5027886;28;20149;-52
2021/11/20 10:05:06;;;;;;;40.40;23.60;;;;;;;9.60;91.73;101480.88;5019472;28;20218;-54
2021/11/20 10:07:43;;;;;;;40.03;23.35;;;;;;;9.62;91.46;101471.97;5028516;28;20118;-53
2021/11/20 10:10:16;;;;;;;41.17;23.17;;;;;;;9.62;91.27;101468.47;5033248;28;20049;-54
2021/11/20 10:12:47;;;;;;;37.85;23.33;;;;;;;9.68;90.77;101465.69;5025670;28;20676;-52
2021/11/20 10:15:16;;;;;;;38.35;23.15;;;;;;;9.67;90.91;101456.00;5029347;28;20052;-53
2021/11/20 10:17:48;;;;;;;39.63;24.13;;;;;;;9.71;90.85;101462.94;5036437;28;20402;-52
2021/11/20 10:20:23;;;;;;;40.38;23.63;;;;;;;9.73;91.05;101461.16;5038391;28;20072;-55
2021/11/20 10:22:50;;;;;;;40.00;23.13;;;;;;;9.77;90.65;101457.47;5042322;28;20049;-53
2021/11/20 10:25:25;;;;;;;41.53;24.08;;;;;;;9.80;90.66;101449.47;5028367;28;20418;-54
2021/11/20 10:28:07;;;;;;;41.58;23.75;;;;;;;9.81;90.46;101445.91;5026706;28;20049;-52
2021/11/20 10:31:01;;;;;;;43.70;24.23;;;;;;;9.85;90.74;101444.94;5032267;28;20072;-53
2021/11/20 10:33:37;;;;;;;40.70;23.63;;;;;;;9.90;90.49;101436.88;5033411;28;20048;-52
2021/11/20 10:36:03;;;;;;;40.70;23.48;;;;;;;9.99;90.74;101436.59;5027310;28;20059;-53
2021/11/20 10:38:35;;;;;;;37.58;23.38;;;;;;;10.07;89.71;101424.88;5040407;28;20052;-60
2021/11/20 10:41:24;;;;;;;43.15;22.85;;;;;;;10.15;89.55;101427.31;5039979;28;20068;-52
2021/11/20 10:44:06;;;;;;;41.38;23.45;;;;;;;10.22;88.96;101428.06;5029396;28;20051;-51
2021/11/20 10:46:45;;;;;;;37.53;22.52;;;;;;;10.28;88.59;101423.44;5028662;28;20483;-53
2021/11/20 10:49:26;;;;;;;38.00;23.33;;;;;;;10.36;87.57;101416.16;5029753;28;20045;-54
2021/11/20 10:52:10;;;;;;;39.70;24.40;;;;;;;10.33;87.36;101397.72;5028240;28;20068;-53
2021/11/20 10:55:01;;;;;;;38.33;22.90;;;;;;;10.39;87.59;101394.03;5027074;28;20041;-52
2021/11/20 10:58:05;;;;;;;39.55;23.45;;;;;;;10.49;87.80;101390.16;5030963;28;20151;-53
2021/11/20 11:00:58;;;;;;;38.53;23.58;;;;;;;10.59;86.21;101386.31;5032808;28;20061;-52
2021/11/20 11:04:00;;;;;;;36.50;22.65;;;;;;;10.61;85.45;101378.31;5036313;28;20041;-53
2021/11/20 11:06:55;;;;;;;38.85;22.63;;;;;;;10.65;85.64;101375.53;5027915;28;20105;-52
2021/11/20 11:09:25;;;;;;;34.63;21.88;;;;;;;10.73;85.56;101368.19;5029725;28;20057;-52
2021/11/20 11:11:59;;;;;;;34.90;22.05;;;;;;;10.80;85.12;101366.22;5022100;28;20056;-51
2021/11/20 11:14:44;;;;;;;48.03;23.90;;;;;;;10.82;84.59;101365.25;5022001;28;20593;-53
2021/11/20 11:17:34;;;;;;;36.80;23.02;;;;;;;10.82;84.22;101357.31;5023914;28;20522;-53
2021/11/20 11:20:19;;;;;;;40.63;23.40;;;;;;;10.90;83.14;101360.56;5025657;28;20517;-53
2021/11/20 11:23:10;;;;;;;37.25;22.35;;;;;;;10.88;83.54;101349.13;5032390;28;20057;-54
2021/11/20 11:25:47;;;;;;;34.72;22.40;;;;;;;10.87;84.28;101339.47;5023077;28;20045;-54
2021/11/20 11:28:37;;;;;;;33.08;21.40;;;;;;;10.93;83.21;101332.22;5025315;28;20053;-55
2021/11/20 11:31:26;;;;;;;36.20;22.50;;;;;;;10.99;83.63;101329.38;5035818;28;20042;-53